Time;durP1;ratioP1;P1;durP2;ratioP2;P2;SDS_P1;SDS_P2;PMS_P1;PMS_P2;Temp;Humidity;BMP_temperature;BMP_pressure;BME280_temperature;BME280_humidity;BME280_pressure;Samples;Min_cycle;Max_cycle;Signal;HPM_P1;HPM_P2
2022/03/19 00:00:06;;;;;;;29.85;12.07;;;;;;;-1.97;45.97;95833.84;5043367;28;20334;-84
2022/03/19 00:02:32;;;;;;;27.35;11.80;;;;;;;-2.03;44.86;95841.47;5043345;28;20025;-84
2022/03/19 00:04:57;;;;;;;25.67;11.65;;;;;;;-2.00;45.45;95832.44;5043172;28;20226;-84
2022/03/19 00:07:23;;;;;;;30.30;13.35;;;;;;;-2.00;44.99;95831.63;5043282;28;20013;-84
2022/03/19 00:09:51;;;;;;;34.97;12.55;;;;;;;-1.98;45.13;95819.97;5042948;28;20334;-84
2022/03/19 00:12:19;;;;;;;33.50;12.57;;;;;;;-1.96;45.39;95823.22;5025262;28;20247;-84
2022/03/19 00:14:45;;;;;;;26.58;11.27;;;;;;;-1.95;45.25;95824.84;5042905;28;20028;-84
2022/03/19 00:17:11;;;;;;;33.13;14.90;;;;;;;-2.01;45.20;95830.81;5042990;28;20017;-84
2022/03/19 00:19:40;;;;;;;31.20;13.55;;;;;;;-2.15;45.46;95823.84;5042988;28;20017;-85
2022/03/19 00:22:06;;;;;;;38.35;14.68;;;;;;;-2.21;45.63;95828.00;5043116;28;20024;-84
2022/03/19 00:24:32;;;;;;;31.35;13.05;;;;;;;-2.23;46.06;95830.00;5042796;28;20037;-84
2022/03/19 00:26:58;;;;;;;29.17;12.82;;;;;;;-2.22;46.12;95829.81;5025154;28;20026;-84
2022/03/19 00:29:24;;;;;;;37.50;13.77;;;;;;;-2.19;46.29;95833.84;5042824;28;20088;-84
2022/03/19 00:31:52;;;;;;;33.65;13.52;;;;;;;-2.19;46.30;95827.81;5042853;28;20384;-84
2022/03/19 00:34:18;;;;;;;27.30;12.45;;;;;;;-2.22;46.65;95821.97;5042406;28;20040;-84
2022/03/19 00:36:43;;;;;;;31.25;13.98;;;;;;;-2.16;48.44;95814.38;5042510;28;20219;-84
2022/03/19 00:39:09;;;;;;;33.08;13.38;;;;;;;-2.15;47.76;95818.63;5025066;28;20687;-84
2022/03/19 00:41:37;;;;;;;34.20;14.15;;;;;;;-2.16;47.33;95825.63;5042778;28;20255;-84
2022/03/19 00:44:05;;;;;;;39.03;14.27;;;;;;;-2.15;47.92;95818.63;5042519;28;20021;-84
2022/03/19 00:46:30;;;;;;;29.98;14.20;;;;;;;-2.16;48.31;95820.41;5042551;28;20051;-84
2022/03/19 00:48:59;;;;;;;30.95;14.18;;;;;;;-2.15;46.96;95816.00;5042562;28;20025;-84
2022/03/19 00:51:25;;;;;;;32.58;14.43;;;;;;;-2.14;47.51;95820.22;5042471;28;20036;-84
2022/03/19 00:53:51;;;;;;;35.97;14.98;;;;;;;-2.17;47.57;95831.06;5042403;28;20029;-84
2022/03/19 00:56:16;;;;;;;35.10;14.35;;;;;;;-2.14;47.82;95828.06;5042676;28;20071;-84
2022/03/19 00:58:42;;;;;;;41.35;14.98;;;;;;;-2.13;47.88;95821.84;5024775;28;20033;-83
2022/03/19 01:01:07;;;;;;;39.30;17.20;;;;;;;-2.14;47.60;95825.44;5042592;28;20371;-84
2022/03/19 01:03:32;;;;;;;42.63;15.82;;;;;;;-2.12;47.44;95828.69;5042456;28;20017;-84
2022/03/19 01:05:58;;;;;;;39.25;15.25;;;;;;;-2.13;47.27;95832.31;5042271;28;20324;-84
2022/03/19 01:08:24;;;;;;;36.03;15.93;;;;;;;-2.12;47.11;95833.91;5042292;28;20036;-83
2022/03/19 01:10:49;;;;;;;40.78;15.88;;;;;;;-2.15;46.87;95821.22;5046302;28;20021;-83
2022/03/19 01:13:14;;;;;;;32.67;14.00;;;;;;;-2.18;46.56;95829.44;5045980;28;20032;-83
2022/03/19 01:15:42;;;;;;;37.88;14.20;;;;;;;-2.23;47.53;95828.19;5046318;28;20251;-83
2022/03/19 01:18:07;;;;;;;28.83;13.35;;;;;;;-2.22;47.88;95819.38;5046523;28;20025;-83
2022/03/19 01:20:34;;;;;;;30.02;14.00;;;;;;;-2.25;48.44;95824.13;5046321;28;20057;-83
2022/03/19 01:23:00;;;;;;;33.20;14.38;;;;;;;-2.26;48.87;95822.50;5046084;28;20028;-84
2022/03/19 01:25:26;;;;;;;39.25;14.93;;;;;;;-2.25;49.09;95817.09;5045998;28;20100;-84
2022/03/19 01:27:53;;;;;;;31.50;14.48;;;;;;;-2.24;49.55;95821.34;5046096;28;20047;-84
2022/03/19 01:30:22;;;;;;;33.75;15.55;;;;;;;-2.26;50.09;95812.88;5046041;28;20021;-84
2022/03/19 01:32:48;;;;;;;38.40;14.85;;;;;;;-2.32;50.46;95811.00;5045845;28;20029;-84
2022/03/19 01:35:16;;;;;;;30.67;15.13;;;;;;;-2.38;50.56;95813.53;5045830;28;20324;-84
2022/03/19 01:37:42;;;;;;;41.92;15.88;;;;;;;-2.40;50.82;95807.69;5045809;28;20025;-83
2022/03/19 01:40:10;;;;;;;38.50;16.10;;;;;;;-2.40;50.97;95813.75;5046085;28;20024;-83
2022/03/19 01:42:39;;;;;;;28.00;14.75;;;;;;;-2.37;51.28;95808.13;5046145;28;20028;-83
2022/03/19 01:45:09;;;;;;;36.00;15.15;;;;;;;-2.38;51.24;95797.88;5045728;28;20017;-83
2022/03/19 01:47:35;;;;;;;31.70;14.15;;;;;;;-2.42;51.14;95797.44;5045427;28;20013;-83
2022/03/19 01:50:01;;;;;;;35.25;15.13;;;;;;;-2.40;51.57;95803.28;5045667;28;20212;-83
2022/03/19 01:52:28;;;;;;;33.15;14.07;;;;;;;-2.40;51.17;95794.63;5045333;28;20021;-84
2022/03/19 01:54:54;;;;;;;35.70;15.40;;;;;;;-2.40;51.25;95805.91;5045549;28;20096;-84
2022/03/19 01:57:22;;;;;;;34.00;14.27;;;;;;;-2.45;51.06;95795.19;5045470;28;20323;-83
2022/03/19 01:59:48;;;;;;;32.17;14.32;;;;;;;-2.47;51.42;95803.19;5045627;28;20033;-84
2022/03/19 02:02:14;;;;;;;37.90;14.55;;;;;;;-2.49;51.02;95799.97;5045566;28;20067;-84
2022/03/19 02:04:41;;;;;;;34.50;14.23;;;;;;;-2.51;51.53;95785.47;5045461;28;20220;-83
2022/03/19 02:07:08;;;;;;;31.58;13.20;;;;;;;-2.51;51.07;95790.69;5045367;28;20025;-84
2022/03/19 02:09:34;;;;;;;37.80;14.57;;;;;;;-2.53;51.80;95788.25;5045356;28;20032;-83
2022/03/19 02:12:00;;;;;;;35.67;14.52;;;;;;;-2.59;51.87;95781.16;5045232;28;20049;-84
2022/03/19 02:14:27;;;;;;;34.00;14.93;;;;;;;-2.64;52.22;95779.13;5045086;28;20025;-84
2022/03/19 02:16:53;;;;;;;32.45;14.23;;;;;;;-2.65;52.46;95787.91;5045384;28;20099;-84
2022/03/19 02:19:19;;;;;;;30.05;13.98;;;;;;;-2.69;52.80;95781.44;5045080;28;20311;-83
2022/03/19 02:21:47;;;;;;;34.33;13.55;;;;;;;-2.66;52.64;95785.50;5045018;28;20398;-84
2022/03/19 02:26:58;;;;;;;32.50;14.10;;;;;;;-2.69;53.22;95781.44;5045137;28;20041;-84
2022/03/19 02:29:23;;;;;;;36.28;14.80;;;;;;;-2.73;53.51;95790.63;5044973;28;20021;-84
2022/03/19 02:32:00;;;;;;;37.17;14.45;;;;;;;-2.81;53.48;95775.06;5044585;28;20104;-84
2022/03/19 02:34:26;;;;;;;34.50;14.68;;;;;;;-2.80;53.60;95773.31;5044444;28;20065;-84
2022/03/19 02:36:52;;;;;;;31.95;14.10;;;;;;;-2.80;53.79;95781.13;5045047;28;20022;-84
2022/03/19 02:39:33;;;;;;;32.83;14.15;;;;;;;-2.84;53.93;95778.88;5044797;28;20087;-84
2022/03/19 02:42:07;;;;;;;37.65;14.65;;;;;;;-2.88;53.56;95776.81;5044665;28;20017;-84
2022/03/19 02:44:33;;;;;;;31.38;13.95;;;;;;;-2.89;53.59;95786.44;5044486;28;20017;-84
2022/03/19 02:47:02;;;;;;;34.40;14.23;;;;;;;-2.89;52.84;95790.84;5026688;28;20021;-85
2022/03/19 02:49:28;;;;;;;27.58;13.20;;;;;;;-2.88;52.91;95798.50;5044751;28;20025;-85
2022/03/19 02:51:57;;;;;;;49.05;18.63;;;;;;;-2.92;53.43;95799.03;5044437;28;20028;-85
2022/03/19 02:54:29;;;;;;;42.90;16.73;;;;;;;-2.96;53.50;95810.84;5044407;28;20022;-84
2022/03/19 02:56:55;;;;;;;35.95;14.23;;;;;;;-2.99;53.70;95811.19;5044455;28;20323;-85
2022/03/19 02:59:29;;;;;;;31.38;13.48;;;;;;;-2.98;54.33;95804.97;5044461;28;20025;-85
2022/03/19 03:02:11;;;;;;;32.25;12.68;;;;;;;-3.02;53.87;95797.50;5044340;28;20255;-84
2022/03/19 03:04:53;;;;;;;36.55;13.82;;;;;;;-3.09;53.69;95796.63;5044468;28;20021;-85
2022/03/19 03:07:19;;;;;;;28.83;12.68;;;;;;;-3.09;54.19;95807.06;5043624;28;20041;-84
2022/03/19 03:09:45;;;;;;;29.88;12.82;;;;;;;-3.12;54.12;95804.78;5044276;28;20343;-84
2022/03/19 03:12:10;;;;;;;35.88;13.73;;;;;;;-3.09;54.16;95801.03;5044280;28;20026;-84
2022/03/19 03:14:36;;;;;;;33.78;12.45;;;;;;;-3.12;53.58;95802.19;5044135;28;20035;-84
2022/03/19 03:17:01;;;;;;;22.75;11.85;;;;;;;-3.15;53.74;95802.56;5044122;28;20030;-84
2022/03/19 03:19:27;;;;;;;28.27;12.32;;;;;;;-3.12;53.75;95804.00;5043973;28;20036;-84
2022/03/19 03:21:53;;;;;;;24.55;11.75;;;;;;;-3.16;53.94;95795.72;5043744;28;20319;-85
2022/03/19 03:24:18;;;;;;;29.70;11.50;;;;;;;-3.19;54.14;95800.50;5044216;28;20020;-84
2022/03/19 03:26:44;;;;;;;26.23;11.73;;;;;;;-3.19;54.51;95792.66;5043951;28;20017;-84
2022/03/19 03:29:10;;;;;;;27.38;12.77;;;;;;;-3.18;54.56;95794.28;5043991;28;20075;-84
2022/03/19 03:31:36;;;;;;;27.35;11.85;;;;;;;-3.22;54.39;95799.03;5043215;28;20017;-84
2022/03/19 03:34:02;;;;;;;25.30;10.98;;;;;;;-3.22;54.21;95791.22;5043388;28;20060;-84
2022/03/19 03:36:28;;;;;;;29.00;12.60;;;;;;;-3.24;54.51;95798.41;5043672;28;20025;-84
2022/03/19 03:38:53;;;;;;;32.30;13.90;;;;;;;-3.29;54.51;95792.94;5043693;28;20215;-84
2022/03/19 03:41:19;;;;;;;36.42;14.10;;;;;;;-3.32;54.32;95791.47;5025986;28;20040;-84
2022/03/19 03:43:45;;;;;;;31.00;13.70;;;;;;;-3.29;54.46;95798.16;5043595;28;20013;-84
2022/03/19 03:46:11;;;;;;;29.65;13.43;;;;;;;-3.32;54.37;95799.28;5043627;28;20028;-84
2022/03/19 03:48:38;;;;;;;26.77;11.95;;;;;;;-3.33;54.50;95795.09;5043422;28;20017;-85
2022/03/19 03:51:06;;;;;;;27.60;12.55;;;;;;;-3.33;54.44;95794.28;5043399;28;20079;-84
2022/03/19 03:53:33;;;;;;;28.45;12.00;;;;;;;-3.34;54.94;95797.84;5043161;28;20025;-84
2022/03/19 03:55:59;;;;;;;27.92;12.55;;;;;;;-3.32;54.62;95795.88;5043539;28;20017;-84
2022/03/19 03:58:24;;;;;;;30.23;12.82;;;;;;;-3.36;54.94;95800.63;5043175;28;20189;-84
2022/03/19 04:00:53;;;;;;;27.35;12.55;;;;;;;-3.34;55.04;95797.84;5043180;28;20025;-84
2022/03/19 04:03:19;;;;;;;26.60;11.75;;;;;;;-3.37;54.96;95796.41;5043200;28;20018;-84
2022/03/19 04:05:45;;;;;;;23.95;10.65;;;;;;;-3.41;55.10;95791.75;5043065;28;20247;-84
2022/03/19 04:08:10;;;;;;;23.83;10.80;;;;;;;-3.40;55.19;95793.34;5043261;28;20096;-84
2022/03/19 04:10:36;;;;;;;26.35;10.75;;;;;;;-3.43;55.44;95790.13;5042954;28;20343;-84
2022/03/19 04:13:01;;;;;;;24.85;11.75;;;;;;;-3.42;55.54;95796.13;5043070;28;20265;-84
2022/03/19 04:15:27;;;;;;;28.77;11.70;;;;;;;-3.44;55.55;95791.13;5043037;28;20299;-85
2022/03/19 04:17:53;;;;;;;25.80;11.93;;;;;;;-3.42;55.79;95798.75;5043044;28;20260;-85
2022/03/19 04:20:18;;;;;;;26.60;11.63;;;;;;;-3.45;55.23;95807.72;5042945;28;20021;-85
2022/03/19 04:22:46;;;;;;;29.27;11.90;;;;;;;-3.45;55.40;95799.91;5043106;28;20092;-84
2022/03/19 04:25:19;;;;;;;25.20;11.45;;;;;;;-3.46;55.93;95803.53;5042941;28;20021;-85
2022/03/19 04:27:50;;;;;;;26.77;10.82;;;;;;;-3.45;55.72;95802.53;5043013;28;20104;-84
2022/03/19 04:30:17;;;;;;;26.83;13.32;;;;;;;-3.45;56.24;95801.72;5024993;28;20029;-84
2022/03/19 04:32:47;;;;;;;28.48;12.77;;;;;;;-3.45;56.32;95805.13;5025185;28;20034;-84
2022/03/19 04:38:00;;;;;;;31.30;14.27;;;;;;;-3.51;55.82;95805.84;5042661;28;20347;-84
2022/03/19 04:40:26;;;;;;;36.22;16.58;;;;;;;-3.52;55.83;95796.41;5042676;28;20036;-84
2022/03/19 04:42:52;;;;;;;34.78;16.58;;;;;;;-3.55;56.20;95804.56;5042051;28;20025;-84
2022/03/19 04:45:17;;;;;;;39.80;16.88;;;;;;;-3.57;56.20;95796.13;5042256;28;20028;-84
2022/03/19 04:47:43;;;;;;;36.25;15.85;;;;;;;-3.53;56.15;95793.97;5042871;28;20363;-84
2022/03/19 04:50:09;;;;;;;40.92;16.27;;;;;;;-3.54;56.14;95797.56;5042505;28;20247;-84
2022/03/19 04:52:36;;;;;;;36.97;16.20;;;;;;;-3.53;56.38;95799.19;5042530;28;20033;-83
2022/03/19 04:55:02;;;;;;;36.92;16.50;;;;;;;-3.54;56.25;95795.78;5042347;28;20033;-84
2022/03/19 04:57:28;;;;;;;37.83;16.70;;;;;;;-3.47;56.09;95798.47;5042555;28;20101;-84
2022/03/19 04:59:55;;;;;;;35.25;17.10;;;;;;;-3.43;55.62;95792.72;5024882;28;20017;-83
2022/03/19 05:02:24;;;;;;;33.95;15.77;;;;;;;-3.46;55.57;95795.69;5042478;28;20092;-83
2022/03/19 05:04:51;;;;;;;39.58;16.58;;;;;;;-3.46;55.36;95795.69;5042448;28;20024;-83
2022/03/19 05:07:17;;;;;;;39.35;15.75;;;;;;;-3.40;55.74;95793.34;5042339;28;20316;-83
2022/03/19 05:12:32;;;;;;;31.92;14.57;;;;;;;-3.28;55.20;95795.38;5042466;28;20060;-83
2022/03/19 05:14:58;;;;;;;33.40;13.15;;;;;;;-3.20;55.80;95794.44;5042168;28;20255;-83
2022/03/19 05:17:25;;;;;;;36.47;13.43;;;;;;;-3.17;53.78;95798.53;5042149;28;20025;-83
2022/03/19 05:19:54;;;;;;;35.13;13.77;;;;;;;-3.15;53.20;95799.94;5024596;28;20056;-83
2022/03/19 05:22:22;;;;;;;35.15;13.48;;;;;;;-3.06;52.39;95801.47;5042211;28;20091;-84
2022/03/19 05:24:50;;;;;;;30.48;13.00;;;;;;;-2.97;51.74;95803.97;5042143;28;20025;-83
2022/03/19 05:27:17;;;;;;;30.65;13.60;;;;;;;-2.91;51.63;95817.13;5042136;28;20032;-84
2022/03/19 05:29:42;;;;;;;36.92;13.98;;;;;;;-2.88;51.56;95808.94;5042545;28;20316;-84
2022/03/19 05:32:09;;;;;;;36.80;14.20;;;;;;;-2.80;51.76;95802.00;5042201;28;20093;-84
2022/03/19 05:34:35;;;;;;;38.40;14.80;;;;;;;-2.73;50.97;95808.09;5041899;28;20037;-84
2022/03/19 05:37:04;;;;;;;30.92;13.70;;;;;;;-2.71;50.95;95816.56;5024465;28;20032;-84
2022/03/19 05:39:33;;;;;;;31.95;13.93;;;;;;;-2.69;51.14;95807.56;5041979;28;20246;-84
2022/03/19 05:41:59;;;;;;;33.45;14.32;;;;;;;-2.62;50.85;95818.91;5042064;28;20354;-84
2022/03/19 05:44:25;;;;;;;34.45;14.43;;;;;;;-2.52;51.08;95813.41;5042158;28;20021;-84
2022/03/19 05:46:51;;;;;;;46.63;15.98;;;;;;;-2.43;50.96;95819.31;5042058;28;20223;-84
2022/03/19 05:49:16;;;;;;;34.05;15.15;;;;;;;-2.33;51.46;95825.06;5042233;28;20021;-83
2022/03/19 05:51:42;;;;;;;34.45;16.08;;;;;;;-2.27;52.04;95821.72;5041873;28;20021;-86
2022/03/19 05:54:09;;;;;;;38.60;15.55;;;;;;;-2.18;52.22;95817.16;5041866;28;20053;-82
2022/03/19 05:56:37;;;;;;;38.53;16.27;;;;;;;-2.08;52.74;95825.50;5044898;28;20021;-82
2022/03/19 05:59:04;;;;;;;51.72;18.70;;;;;;;-2.03;52.62;95815.31;5045324;28;20029;-82
2022/03/19 06:01:30;;;;;;;36.70;17.05;;;;;;;-1.93;52.58;95819.44;5045603;28;20026;-82
2022/03/19 06:03:57;;;;;;;46.08;15.93;;;;;;;-1.85;52.41;95808.88;5045216;28;20308;-83
2022/03/19 06:06:23;;;;;;;45.40;16.58;;;;;;;-1.76;52.08;95817.38;5045166;28;20028;-83
2022/03/19 06:08:49;;;;;;;35.70;16.45;;;;;;;-1.69;52.24;95805.16;5045047;28;20025;-82
2022/03/19 06:11:14;;;;;;;44.97;18.33;;;;;;;-1.60;51.78;95811.88;5045259;28;20096;-82
2022/03/19 06:13:40;;;;;;;42.67;16.80;;;;;;;-1.51;51.18;95809.94;5045156;28;20025;-82
2022/03/19 06:16:06;;;;;;;42.50;16.95;;;;;;;-1.43;50.60;95810.59;5045017;28;20021;-83
2022/03/19 06:18:31;;;;;;;40.08;17.20;;;;;;;-1.37;50.10;95813.47;5045035;28;20022;-83
2022/03/19 06:20:57;;;;;;;36.83;16.85;;;;;;;-1.31;50.06;95804.84;5045007;28;20216;-83
2022/03/19 06:23:23;;;;;;;39.67;16.63;;;;;;;-1.27;49.38;95801.66;5044834;28;20022;-82
2022/03/19 06:25:49;;;;;;;32.22;14.68;;;;;;;-1.18;48.82;95809.34;5045084;28;20041;-84
2022/03/19 06:28:16;;;;;;;49.10;15.57;;;;;;;-1.15;48.42;95809.00;5044960;28;20067;-84
2022/03/19 06:30:41;;;;;;;32.38;14.20;;;;;;;-1.09;48.52;95813.47;5044646;28;20021;-83
2022/03/19 06:33:30;;;;;;;35.80;14.18;;;;;;;-0.99;48.22;95805.28;5044532;28;20045;-83
2022/03/19 06:38:46;;;;;;;27.95;10.63;;;;;;;-0.90;47.38;95817.19;5045047;28;20119;-83
2022/03/19 06:41:11;;;;;;;23.58;9.70;;;;;;;-0.91;46.44;95816.38;5044477;28;20108;-83
2022/03/19 06:43:40;;;;;;;21.02;10.82;;;;;;;-0.92;47.54;95824.44;5026642;28;20022;-84
2022/03/19 06:46:05;;;;;;;19.83;9.60;;;;;;;-0.88;46.99;95823.03;5026822;28;20234;-83
2022/03/19 06:48:31;;;;;;;22.15;9.85;;;;;;;-0.83;46.95;95818.03;5044607;28;20009;-83
2022/03/19 06:50:56;;;;;;;23.80;10.13;;;;;;;-0.75;45.39;95817.06;5044727;28;20018;-83
2022/03/19 06:53:23;;;;;;;26.75;9.02;;;;;;;-0.75;45.28;95820.50;5044403;28;20021;-84
2022/03/19 06:55:48;;;;;;;29.50;9.25;;;;;;;-0.77;44.87;95819.06;5044386;28;20328;-83
2022/03/19 06:58:19;;;;;;;22.38;8.60;;;;;;;-0.72;44.97;95824.53;5044376;28;20056;-83
2022/03/19 07:00:44;;;;;;;20.30;8.60;;;;;;;-0.67;45.17;95822.97;5044590;28;20106;-83
2022/03/19 07:03:10;;;;;;;17.90;9.25;;;;;;;-0.58;45.55;95805.25;5044331;28;20227;-83
2022/03/19 07:05:35;;;;;;;21.45;10.30;;;;;;;-0.53;44.49;95807.28;5044146;28;20040;-83
2022/03/19 07:08:08;;;;;;;20.00;8.77;;;;;;;-0.43;43.99;95805.94;5043342;28;20032;-83
2022/03/19 07:10:36;;;;;;;23.83;9.70;;;;;;;-0.36;44.14;95803.34;5044298;28;20022;-84
2022/03/19 07:13:05;;;;;;;16.15;8.05;;;;;;;-0.25;43.86;95804.56;5044036;28;20306;-83
2022/03/19 07:15:30;;;;;;;17.73;8.15;;;;;;;-0.14;43.75;95795.31;5026299;28;20248;-83
2022/03/19 07:17:58;;;;;;;20.77;8.13;;;;;;;-0.03;43.27;95795.53;5026401;28;20064;-83
2022/03/19 07:20:24;;;;;;;17.20;8.50;;;;;;;0.09;42.92;95794.97;5043920;28;20021;-83
2022/03/19 07:22:55;;;;;;;20.30;8.77;;;;;;;0.18;43.23;95799.84;5043901;28;20312;-83
2022/03/19 07:25:24;;;;;;;17.70;7.83;;;;;;;0.21;43.28;95795.19;5043710;28;20021;-83
2022/03/19 07:27:50;;;;;;;18.60;8.77;;;;;;;0.14;42.52;95803.88;5043772;28;20053;-83
2022/03/19 07:30:16;;;;;;;18.17;8.27;;;;;;;0.28;42.65;95799.41;5043883;28;20029;-83
2022/03/19 07:32:42;;;;;;;19.15;8.50;;;;;;;0.35;43.35;95800.25;5043568;28;20383;-83
2022/03/19 07:35:08;;;;;;;17.25;9.00;;;;;;;0.31;42.20;95803.47;5043813;28;20049;-83
2022/03/19 07:37:34;;;;;;;22.42;9.77;;;;;;;0.34;42.63;95803.06;5043735;28;20021;-83
2022/03/19 07:40:00;;;;;;;17.60;8.00;;;;;;;0.29;41.84;95802.88;5043430;28;20196;-83
2022/03/19 07:42:29;;;;;;;25.70;9.18;;;;;;;0.35;41.20;95804.69;5043429;28;20021;-83
2022/03/19 07:44:54;;;;;;;22.55;8.20;;;;;;;0.35;40.73;95799.44;5043564;28;20017;-84
2022/03/19 07:47:20;;;;;;;21.95;9.02;;;;;;;0.34;41.11;95798.63;5043648;28;20040;-83
2022/03/19 07:49:46;;;;;;;22.27;9.38;;;;;;;0.55;40.61;95802.03;5043640;28;20362;-83
2022/03/19 07:52:12;;;;;;;18.92;8.75;;;;;;;0.67;40.16;95800.44;5043785;28;20033;-83
2022/03/19 07:54:38;;;;;;;13.82;7.55;;;;;;;0.62;38.34;95800.25;5043219;28;20018;-83
2022/03/19 07:57:08;;;;;;;17.42;7.50;;;;;;;0.82;38.21;95802.84;5043124;28;20028;-84
2022/03/19 07:59:34;;;;;;;15.07;7.00;;;;;;;1.02;36.58;95802.00;5043033;28;20316;-83
2022/03/19 08:01:59;;;;;;;17.77;7.05;;;;;;;1.12;35.03;95808.47;5025382;28;20032;-83
2022/03/19 08:04:25;;;;;;;15.00;7.25;;;;;;;1.19;35.69;95805.81;5043270;28;20076;-83
2022/03/19 08:06:55;;;;;;;14.32;7.50;;;;;;;1.32;36.00;95810.22;5043377;28;20093;-83
2022/03/19 08:09:22;;;;;;;14.13;7.15;;;;;;;1.47;36.15;95799.47;5043221;28;20025;-83
2022/03/19 08:11:47;;;;;;;16.75;7.57;;;;;;;1.63;36.06;95811.31;5043211;28;20037;-83
2022/03/19 08:14:14;;;;;;;13.68;7.78;;;;;;;1.75;34.69;95805.22;5042877;28;20048;-83
2022/03/19 08:16:45;;;;;;;16.90;7.35;;;;;;;1.84;35.06;95802.34;5043004;28;20021;-83
2022/03/19 08:19:13;;;;;;;22.13;8.32;;;;;;;1.97;35.08;95802.25;5042692;28;20026;-83
2022/03/19 08:21:40;;;;;;;19.77;8.15;;;;;;;2.11;34.57;95813.50;5042771;28;20017;-83
2022/03/19 08:24:06;;;;;;;16.50;8.07;;;;;;;2.20;32.80;95797.25;5042981;28;20024;-83
2022/03/19 08:26:32;;;;;;;16.88;7.97;;;;;;;2.17;33.09;95802.94;5042782;28;20032;-83
2022/03/19 08:28:58;;;;;;;14.45;7.68;;;;;;;2.22;33.81;95794.44;5042757;28;20021;-83
2022/03/19 08:31:24;;;;;;;16.88;8.85;;;;;;;2.38;34.21;95800.97;5042605;28;20259;-83
2022/03/19 08:33:49;;;;;;;15.95;7.97;;;;;;;2.29;33.15;95789.09;5042772;28;20045;-83
2022/03/19 08:36:17;;;;;;;15.07;7.43;;;;;;;2.25;32.72;95793.97;5042581;28;20022;-83
2022/03/19 08:41:28;;;;;;;14.73;7.82;;;;;;;1.99;33.21;95794.97;5042666;28;20232;-83
2022/03/19 08:43:54;;;;;;;15.00;7.82;;;;;;;2.14;33.24;95792.84;5042687;28;20197;-83
2022/03/19 08:46:19;;;;;;;16.75;7.35;;;;;;;2.33;32.77;95790.28;5042748;28;20044;-83
2022/03/19 08:48:45;;;;;;;13.05;6.72;;;;;;;2.47;32.71;95788.38;5042439;28;20029;-82
2022/03/19 08:53:55;;;;;;;15.23;7.32;;;;;;;2.63;31.84;95787.03;5042503;28;20044;-82
2022/03/19 08:56:22;;;;;;;14.95;7.25;;;;;;;2.70;31.31;95785.13;5042658;28;20255;-83
2022/03/19 08:58:47;;;;;;;12.80;7.60;;;;;;;2.74;31.81;95783.69;5042458;28;20049;-83
2022/03/19 09:01:13;;;;;;;16.80;7.80;;;;;;;2.63;31.30;95776.50;5042211;28;20030;-83
2022/03/19 09:03:38;;;;;;;18.00;7.70;;;;;;;2.60;31.99;95781.16;5042443;28;20056;-83
2022/03/19 09:06:04;;;;;;;18.15;7.00;;;;;;;2.45;31.74;95783.31;5042429;28;20026;-83
2022/03/19 09:08:29;;;;;;;19.35;6.55;;;;;;;2.58;31.69;95777.94;5042294;28;20079;-83
2022/03/19 09:10:57;;;;;;;13.40;7.53;;;;;;;2.48;31.71;95793.41;5042238;28;20032;-82
2022/03/19 09:13:23;;;;;;;14.60;7.40;;;;;;;2.50;31.96;95783.47;5042406;28;20266;-83
2022/03/19 09:15:48;;;;;;;13.07;6.50;;;;;;;2.65;32.45;95782.38;5042027;28;20025;-83
2022/03/19 09:18:16;;;;;;;13.27;7.88;;;;;;;2.76;31.60;95779.81;5042237;28;20033;-83
2022/03/19 09:20:41;;;;;;;20.60;8.45;;;;;;;2.77;30.94;95778.81;5042197;28;20312;-83
2022/03/19 09:23:07;;;;;;;38.25;16.52;;;;;;;2.81;31.23;95776.53;5041993;28;20049;-83
2022/03/19 09:25:32;;;;;;;31.25;12.93;;;;;;;2.82;31.54;95780.78;5042123;28;20089;-83
2022/03/19 09:27:58;;;;;;;29.17;10.45;;;;;;;2.92;31.79;95767.91;5041910;28;20316;-83
2022/03/19 09:30:23;;;;;;;19.48;8.75;;;;;;;3.11;32.39;95774.00;5043064;28;20031;-83
2022/03/19 09:32:49;;;;;;;16.10;7.20;;;;;;;3.17;30.05;95772.31;5045838;28;20088;-83
2022/03/19 09:35:14;;;;;;;11.98;6.55;;;;;;;3.05;29.71;95768.81;5045730;28;20132;-83
2022/03/19 09:37:39;;;;;;;16.35;7.07;;;;;;;3.12;30.25;95775.63;5045730;28;20248;-83
2022/03/19 09:40:06;;;;;;;18.88;8.63;;;;;;;3.26;30.71;95773.66;5045439;28;20096;-83
2022/03/19 09:42:34;;;;;;;16.17;7.63;;;;;;;3.44;30.72;95764.13;5045330;28;20227;-83
2022/03/19 09:45:00;;;;;;;13.95;7.63;;;;;;;3.67;31.00;95766.09;5045580;28;20017;-83
2022/03/19 09:47:26;;;;;;;24.10;7.72;;;;;;;3.84;31.51;95766.25;5045467;28;20215;-83
2022/03/19 09:49:53;;;;;;;14.55;7.70;;;;;;;4.01;30.99;95769.88;5045322;28;20033;-82
2022/03/19 09:52:24;;;;;;;14.63;7.38;;;;;;;4.07;30.56;95762.88;5045399;28;20028;-82
2022/03/19 09:54:50;;;;;;;16.30;7.55;;;;;;;4.02;30.23;95761.72;5045543;28;20057;-82
2022/03/19 09:57:15;;;;;;;14.73;7.05;;;;;;;3.95;30.02;95765.50;5045427;28;20156;-82
2022/03/19 09:59:41;;;;;;;11.07;6.57;;;;;;;3.95;30.54;95760.22;5045259;28;20029;-82
2022/03/19 10:02:10;;;;;;;16.20;7.28;;;;;;;3.92;29.99;95766.75;5045061;28;20381;-81
2022/03/19 10:04:44;;;;;;;53.47;15.68;;;;;;;3.88;30.96;95770.06;5045036;28;20324;-82
2022/03/19 10:09:56;;;;;;;16.00;7.88;;;;;;;4.01;30.61;95754.06;5045378;28;20220;-82
2022/03/19 10:12:30;;;;;;;17.33;7.68;;;;;;;4.19;30.73;95761.91;5045284;28;20332;-82
2022/03/19 10:14:57;;;;;;;14.32;7.22;;;;;;;4.37;30.74;95758.38;5044927;28;20036;-81
2022/03/19 10:17:31;;;;;;;14.73;7.80;;;;;;;4.39;30.39;95758.94;5027378;28;20027;-82
2022/03/19 10:20:03;;;;;;;15.18;7.38;;;;;;;4.28;30.60;95762.38;5045040;28;20219;-82
2022/03/19 10:22:29;;;;;;;15.57;6.83;;;;;;;3.95;31.29;95760.22;5044868;28;20108;-82
2022/03/19 10:24:57;;;;;;;12.57;6.95;;;;;;;3.97;31.15;95763.44;5044795;28;20264;-82
2022/03/19 10:27:23;;;;;;;17.10;7.32;;;;;;;3.94;30.89;95758.59;5044887;28;20232;-82
2022/03/19 10:30:04;;;;;;;12.55;6.85;;;;;;;4.06;31.27;95756.00;5044619;28;20048;-82
2022/03/19 10:32:30;;;;;;;19.60;7.82;;;;;;;4.13;31.34;95751.44;5044824;28;20228;-82
2022/03/19 10:34:55;;;;;;;14.38;7.57;;;;;;;4.24;31.12;95748.03;5044357;28;20061;-81
2022/03/19 10:37:39;;;;;;;14.35;6.47;;;;;;;4.35;30.00;95755.16;5044572;28;20088;-82
2022/03/19 10:40:07;;;;;;;14.18;7.00;;;;;;;4.41;30.12;95759.50;5044709;28;20303;-81
2022/03/19 10:42:40;;;;;;;13.45;6.70;;;;;;;4.37;29.89;95747.00;5042957;28;20268;-82
2022/03/19 10:45:11;;;;;;;14.20;7.30;;;;;;;4.42;30.39;95747.16;5044480;28;20205;-82
2022/03/19 10:47:45;;;;;;;13.40;6.60;;;;;;;4.42;29.68;95749.78;5044400;28;20025;-82
2022/03/19 10:50:25;;;;;;;12.07;5.80;;;;;;;4.36;29.90;95748.84;5044416;28;20049;-82
2022/03/19 10:52:52;;;;;;;14.40;7.00;;;;;;;4.29;30.14;95742.06;5044597;28;20021;-82
2022/03/19 10:55:19;;;;;;;13.02;6.93;;;;;;;4.37;30.28;95752.28;5044424;28;20025;-82
2022/03/19 10:57:46;;;;;;;9.50;6.07;;;;;;;4.44;29.72;95745.06;5026585;28;20228;-82
2022/03/19 11:00:12;;;;;;;14.35;7.35;;;;;;;4.40;29.53;95741.28;5044148;28;20029;-82
2022/03/19 11:02:45;;;;;;;12.02;6.57;;;;;;;4.46;29.76;95745.66;5026379;28;20071;-82
2022/03/19 11:05:12;;;;;;;11.75;6.78;;;;;;;4.52;30.26;95736.81;5044048;28;20080;-82
2022/03/19 11:07:42;;;;;;;13.70;6.65;;;;;;;4.52;29.46;95726.25;5044106;28;20029;-82
2022/03/19 11:10:08;;;;;;;16.92;6.85;;;;;;;4.38;29.13;95738.06;5044172;28;20216;-82
2022/03/19 11:12:35;;;;;;;13.63;6.75;;;;;;;4.19;29.74;95729.41;5043900;28;20282;-81
2022/03/19 11:15:04;;;;;;;18.38;7.45;;;;;;;4.21;30.21;95733.44;5043783;28;20051;-81
2022/03/19 11:17:32;;;;;;;15.00;6.70;;;;;;;4.31;30.59;95732.88;5043807;28;20025;-82
2022/03/19 11:20:00;;;;;;;11.23;6.47;;;;;;;4.30;30.68;95727.84;5043808;28;20029;-81
2022/03/19 11:22:30;;;;;;;11.10;6.03;;;;;;;4.39;31.51;95729.09;5043937;28;20021;-82
2022/03/19 11:25:07;;;;;;;12.38;6.32;;;;;;;4.52;31.64;95723.63;5038476;28;20231;-82
2022/03/19 11:27:37;;;;;;;13.13;6.90;;;;;;;4.66;31.37;95726.00;5025964;28;20032;-82
2022/03/19 11:30:05;;;;;;;11.80;5.88;;;;;;;4.84;29.98;95731.19;5043500;28;20041;-82
2022/03/19 11:32:30;;;;;;;9.15;5.65;;;;;;;4.94;29.33;95730.59;5043337;28;20029;-82
2022/03/19 11:34:59;;;;;;;10.55;5.30;;;;;;;4.85;27.87;95721.44;5043325;28;20075;-82
2022/03/19 11:38:02;;;;;;;10.75;5.30;;;;;;;4.70;28.00;95708.66;5043305;28;20025;-82
2022/03/19 11:40:37;;;;;;;18.17;7.95;;;;;;;4.51;29.11;95714.06;5043678;28;20021;-82
2022/03/19 11:43:05;;;;;;;20.13;8.90;;;;;;;4.56;29.88;95708.09;5043379;28;20047;-82